createdAt,value
2019-05-18T00:04:38.639Z,10.40
2019-05-18T00:09:42.339Z,10.40
2019-05-18T00:14:46.052Z,10.30
2019-05-18T00:19:50.130Z,10.20
2019-05-18T00:24:53.850Z,10.10
2019-05-18T00:29:57.651Z,10.10
2019-05-18T00:35:01.410Z,10.00
2019-05-18T00:40:06.354Z,9.90
2019-05-18T00:45:12.194Z,9.90
2019-05-18T00:50:16.102Z,9.90
2019-05-18T00:55:19.814Z,9.90
2019-05-18T01:00:23.952Z,9.90
2019-05-18T01:05:28.372Z,9.80
2019-05-18T01:10:32.157Z,9.70
2019-05-18T01:15:35.964Z,9.70
2019-05-18T01:20:39.809Z,9.70
2019-05-18T01:25:43.861Z,9.60
2019-05-18T01:30:47.585Z,9.60
2019-05-18T01:35:51.561Z,9.50
2019-05-18T01:40:55.282Z,9.40
2019-05-18T01:45:58.973Z,9.30
2019-05-18T01:51:02.694Z,9.30
2019-05-18T01:56:06.393Z,9.20
2019-05-18T02:01:10.091Z,9.20
2019-05-18T02:06:13.855Z,9.20
2019-05-18T02:11:17.746Z,9.30
2019-05-18T02:16:21.481Z,9.40
2019-05-18T02:21:25.190Z,9.40
2019-05-18T02:26:29.237Z,9.40
2019-05-18T02:31:32.951Z,9.30
2019-05-18T02:36:36.678Z,9.30
2019-05-18T02:41:40.651Z,9.20
2019-05-18T02:46:44.377Z,9.20
2019-05-18T02:51:48.093Z,9.10
2019-05-18T02:56:52.121Z,9.00
2019-05-18T03:01:55.822Z,8.90
2019-05-18T03:07:00.179Z,8.90
2019-05-18T03:12:04.099Z,8.90
2019-05-18T03:17:07.813Z,8.90
2019-05-18T03:22:11.542Z,9.00
2019-05-18T03:27:15.243Z,9.10
2019-05-18T03:32:19.285Z,9.20
2019-05-18T03:37:23.667Z,9.10
2019-05-18T03:42:27.442Z,9.00
2019-05-18T03:47:31.166Z,9.00
2019-05-18T03:52:34.886Z,9.20
2019-05-18T03:57:38.841Z,9.60
2019-05-18T04:02:42.560Z,10.10
2019-05-18T04:07:46.366Z,10.50
2019-05-18T04:12:50.099Z,10.70
2019-05-18T04:17:53.828Z,11.00
2019-05-18T04:22:57.538Z,11.30
2019-05-18T04:28:01.362Z,11.70
2019-05-18T04:33:05.494Z,12.40
2019-05-18T04:38:09.227Z,12.90
2019-05-18T04:43:12.967Z,13.30
2019-05-18T04:48:16.957Z,13.30
2019-05-18T04:53:20.653Z,13.40
2019-05-18T04:58:24.366Z,13.40
2019-05-18T05:03:28.414Z,13.50
2019-05-18T05:08:32.118Z,13.50
2019-05-18T05:13:35.821Z,13.50
2019-05-18T05:18:39.781Z,13.50
2019-05-18T05:23:43.482Z,13.50
2019-05-18T05:28:47.186Z,13.70
2019-05-18T05:33:51.235Z,13.80
2019-05-18T05:38:54.968Z,13.90
2019-05-18T05:43:58.675Z,14.20
2019-05-18T05:49:02.447Z,14.50
2019-05-18T05:54:06.199Z,14.70
2019-05-18T05:59:09.908Z,15.10
2019-05-18T06:04:13.705Z,15.20
2019-05-18T06:09:17.410Z,15.50
2019-05-18T06:14:21.142Z,15.50
2019-05-18T06:19:24.934Z,15.90
2019-05-18T06:24:28.946Z,16.20
2019-05-18T06:29:32.683Z,16.50
2019-05-18T06:34:36.403Z,17.00
2019-05-18T06:39:40.386Z,17.40
2019-05-18T06:44:44.115Z,17.80
2019-05-18T06:49:48.182Z,18.30
2019-05-18T06:54:51.915Z,18.80
2019-05-18T06:59:55.757Z,19.70
2019-05-18T07:04:59.497Z,19.80
2019-05-18T07:10:03.245Z,20.30
2019-05-18T07:15:07.521Z,20.70
2019-05-18T07:20:12.097Z,20.70
2019-05-18T07:25:16.362Z,20.70
2019-05-18T07:30:20.137Z,20.90
2019-05-18T07:35:23.909Z,21.20
2019-05-18T07:40:27.638Z,21.40
2019-05-18T07:45:31.455Z,21.40
2019-05-18T07:50:35.205Z,21.40
2019-05-18T07:55:38.990Z,21.80
2019-05-18T08:00:42.970Z,22.00
2019-05-18T08:05:47.055Z,22.00
2019-05-18T08:10:50.768Z,22.40
2019-05-18T08:20:57.899Z,22.40
2019-05-18T08:26:01.724Z,22.40
2019-05-18T08:31:06.313Z,22.10
2019-05-18T08:36:10.330Z,22.30
2019-05-18T08:41:14.159Z,22.80
2019-05-18T08:46:18.266Z,22.70
2019-05-18T08:51:22.084Z,22.90
2019-05-18T08:56:25.831Z,22.90
2019-05-18T09:01:29.585Z,23.10
2019-05-18T09:06:33.334Z,22.80
2019-05-18T09:11:37.058Z,23.20
2019-05-18T09:16:40.777Z,23.30
2019-05-18T09:21:44.788Z,23.10
2019-05-18T09:26:48.746Z,23.00
2019-05-18T09:31:52.838Z,23.20
2019-05-18T09:36:57.009Z,22.90
2019-05-18T09:42:01.465Z,23.20
2019-05-18T09:47:05.463Z,23.20
2019-05-18T09:52:09.312Z,22.90
2019-05-18T09:57:13.075Z,23.40
2019-05-18T10:02:17.322Z,23.70
2019-05-18T10:07:21.075Z,23.50
2019-05-18T10:12:25.351Z,23.10
2019-05-18T10:17:29.121Z,22.30
2019-05-18T10:22:33.184Z,22.30
2019-05-18T10:27:37.684Z,22.60
2019-05-18T10:32:41.621Z,22.80
2019-05-18T10:37:45.492Z,23.10
2019-05-18T10:42:49.265Z,23.50
2019-05-18T10:47:53.100Z,24.30
2019-05-18T10:52:57.069Z,24.30
2019-05-18T10:58:01.245Z,23.80
2019-05-18T11:03:05.141Z,24.00
2019-05-18T11:08:08.961Z,23.80
2019-05-18T11:13:13.532Z,23.50
2019-05-18T11:18:18.437Z,23.10
2019-05-18T11:23:22.565Z,23.20
2019-05-18T11:28:26.435Z,23.80
2019-05-18T11:33:30.378Z,24.50
2019-05-18T11:38:34.192Z,25.10
2019-05-18T11:43:38.078Z,25.20
2019-05-18T11:48:41.944Z,25.60
2019-05-18T11:53:57.455Z,25.80
2019-05-18T11:58:52.433Z,25.80
2019-05-18T12:03:56.636Z,25.50
2019-05-18T12:09:00.480Z,25.60
2019-05-18T12:14:04.304Z,25.60
2019-05-18T12:19:08.139Z,24.60
2019-05-18T12:24:18.388Z,24.10
2019-05-18T12:29:22.318Z,24.90
2019-05-18T12:34:26.771Z,25.50
2019-05-18T12:39:30.641Z,25.30
2019-05-18T12:44:34.822Z,25.40
2019-05-18T12:49:38.984Z,25.20
2019-05-18T12:54:46.622Z,25.10
2019-05-18T12:59:48.278Z,25.80
2019-05-18T13:04:52.136Z,26.40
2019-05-18T13:09:56.570Z,26.30
2019-05-18T13:15:01.201Z,26.50
2019-05-18T13:20:06.078Z,26.60
2019-05-18T13:25:11.386Z,26.30
2019-05-18T13:30:19.709Z,25.70
2019-05-18T13:35:23.262Z,25.60
2019-05-18T13:40:27.200Z,26.30
2019-05-18T13:45:32.984Z,26.70
2019-05-18T13:50:37.249Z,26.40
2019-05-18T13:55:41.179Z,26.40
2019-05-18T14:00:45.309Z,26.30
2019-05-18T14:05:49.819Z,26.50
2019-05-18T14:10:53.972Z,26.70
2019-05-18T14:15:58.215Z,26.40
2019-05-18T14:21:02.129Z,26.20
2019-05-18T14:26:06.414Z,26.50
2019-05-18T14:31:10.513Z,26.80
2019-05-18T14:36:14.618Z,26.30
2019-05-18T14:46:39.319Z,26.20
2019-05-18T14:51:43.080Z,26.40
2019-05-18T14:56:47.470Z,26.60
2019-05-18T15:01:51.491Z,25.90
2019-05-18T15:06:55.303Z,25.50
2019-05-18T15:11:59.379Z,25.90
2019-05-18T15:17:03.082Z,26.00
2019-05-18T15:22:06.782Z,26.10
2019-05-18T15:27:10.509Z,26.30
2019-05-18T15:32:14.539Z,25.80
2019-05-18T15:37:18.770Z,25.40
2019-05-18T15:42:22.507Z,24.80
2019-05-18T15:47:26.718Z,24.80
2019-05-18T15:52:30.483Z,25.10
2019-05-18T15:57:34.504Z,25.50
2019-05-18T16:02:38.378Z,25.30
2019-05-18T16:07:42.195Z,25.00
2019-05-18T16:12:45.919Z,24.80
2019-05-18T16:17:49.966Z,24.40
2019-05-18T16:22:53.731Z,23.60
2019-05-18T16:27:58.018Z,23.50
2019-05-18T16:33:01.808Z,24.00
2019-05-18T16:38:05.621Z,24.20
2019-05-18T16:43:09.735Z,24.20
2019-05-18T16:48:13.444Z,24.20
2019-05-18T16:53:17.242Z,24.20
2019-05-18T16:58:20.974Z,24.20
2019-05-18T17:03:24.765Z,24.00
2019-05-18T17:08:28.570Z,23.80
2019-05-18T17:13:32.361Z,23.70
2019-05-18T17:18:36.174Z,23.50
2019-05-18T17:23:39.896Z,23.40
2019-05-18T17:28:43.633Z,23.20
2019-05-18T17:33:47.437Z,23.00
2019-05-18T17:38:51.134Z,22.90
2019-05-18T17:43:54.869Z,22.80
2019-05-18T17:48:58.605Z,22.70
2019-05-18T17:54:02.386Z,22.60
2019-05-18T17:59:06.518Z,22.70
2019-05-18T18:04:10.314Z,22.80
2019-05-18T18:09:14.043Z,22.90
2019-05-18T18:14:17.813Z,23.10
2019-05-18T18:19:21.577Z,23.10
2019-05-18T18:24:25.477Z,23.00
2019-05-18T18:29:29.358Z,22.80
2019-05-18T18:34:33.088Z,22.40
2019-05-18T18:39:36.815Z,22.00
2019-05-18T18:44:41.137Z,21.50
2019-05-18T18:49:45.111Z,21.10
2019-05-18T18:54:49.045Z,20.50
2019-05-18T18:59:57.185Z,20.00
2019-05-18T19:05:01.202Z,19.50
2019-05-18T19:10:05.814Z,19.20
2019-05-18T19:15:10.739Z,18.90
2019-05-18T19:20:15.603Z,18.60
2019-05-18T19:25:19.782Z,18.30
2019-05-18T19:30:23.702Z,18.00
2019-05-18T19:35:27.489Z,17.70
2019-05-18T19:40:31.293Z,17.40
2019-05-18T19:45:35.314Z,17.20
2019-05-18T19:50:39.087Z,17.00
2019-05-18T19:55:42.808Z,16.60
2019-05-18T20:00:46.623Z,16.40
2019-05-18T20:05:50.342Z,16.20
2019-05-18T20:10:54.390Z,16.00
2019-05-18T20:15:58.363Z,15.80
2019-05-18T20:21:02.108Z,15.70
2019-05-18T20:26:05.898Z,15.40
2019-05-18T20:31:09.616Z,15.20
2019-05-18T20:36:13.315Z,15.00
2019-05-18T20:41:17.047Z,14.80
2019-05-18T20:46:20.830Z,14.60
2019-05-18T20:51:24.888Z,14.50
2019-05-18T20:56:28.653Z,14.40
2019-05-18T21:01:32.470Z,14.40
2019-05-18T21:06:37.436Z,14.50
2019-05-18T21:11:41.946Z,14.90
2019-05-18T21:16:45.798Z,15.30
2019-05-18T21:21:49.856Z,15.60
2019-05-18T21:26:53.886Z,15.70
2019-05-18T21:31:57.934Z,15.80
2019-05-18T21:37:01.694Z,15.80
2019-05-18T21:42:05.675Z,15.90
2019-05-18T21:47:09.496Z,15.70
2019-05-18T21:52:13.215Z,15.40
2019-05-18T21:57:17.290Z,15.10
2019-05-18T22:02:21.122Z,14.90
2019-05-18T22:07:25.087Z,14.70
2019-05-18T22:12:28.799Z,14.60
2019-05-18T22:17:35.330Z,14.40
2019-05-18T22:22:39.172Z,14.00
2019-05-18T22:27:42.902Z,13.70
2019-05-18T22:32:46.691Z,13.50
2019-05-18T22:37:50.823Z,13.10
2019-05-18T22:42:54.823Z,12.70
2019-05-18T22:47:59.158Z,12.50
2019-05-18T22:53:02.900Z,12.40
2019-05-18T22:58:07.011Z,12.30
2019-05-18T23:03:11.074Z,12.30
2019-05-18T23:08:15.026Z,12.20
2019-05-18T23:13:18.830Z,12.10
2019-05-18T23:18:22.923Z,12.20
2019-05-18T23:23:26.663Z,12.10
2019-05-18T23:28:30.391Z,11.90
2019-05-18T23:33:34.411Z,11.80
2019-05-18T23:38:38.160Z,11.70
2019-05-18T23:43:41.970Z,11.60
2019-05-18T23:48:46.087Z,11.60
2019-05-18T23:53:49.890Z,11.40
2019-05-18T23:58:53.637Z,11.40
